sensor_id;sensor_type;location;lat;lon;timestamp;pressure;altitude;pressure_sealevel;temperature;humidity
48862;BME280;34681;49.188;-0.374;2023-02-16T00:01:29;102274.81;;;11.53;68.49
48862;BME280;34681;49.188;-0.374;2023-02-16T00:03:56;102263.56;;;11.45;68.72
48862;BME280;34681;49.188;-0.374;2023-02-16T00:06:23;102277.38;;;11.43;68.98
48862;BME280;34681;49.188;-0.374;2023-02-16T00:08:51;102264.88;;;11.39;69.00
48862;BME280;34681;49.188;-0.374;2023-02-16T00:11:20;102274.41;;;11.46;69.01
48862;BME280;34681;49.188;-0.374;2023-02-16T00:14:07;102269.25;;;11.42;69.07
48862;BME280;34681;49.188;-0.374;2023-02-16T00:16:33;102272.94;;;11.53;68.70
48862;BME280;34681;49.188;-0.374;2023-02-16T00:18:59;102277.72;;;11.63;68.67
48862;BME280;34681;49.188;-0.374;2023-02-16T00:21:25;102276.16;;;11.71;68.73
48862;BME280;34681;49.188;-0.374;2023-02-16T00:23:50;102270.03;;;11.68;68.75
48862;BME280;34681;49.188;-0.374;2023-02-16T00:39:44;102264.28;;;11.84;68.63
48862;BME280;34681;49.188;-0.374;2023-02-16T00:42:16;102253.81;;;11.89;68.29
48862;BME280;34681;49.188;-0.374;2023-02-16T00:44:48;102254.84;;;11.99;67.77
48862;BME280;34681;49.188;-0.374;2023-02-16T00:49:51;102262.44;;;11.95;68.08
48862;BME280;34681;49.188;-0.374;2023-02-16T00:54:51;102257.97;;;11.94;68.15
48862;BME280;34681;49.188;-0.374;2023-02-16T00:57:17;102259.47;;;11.98;67.98
48862;BME280;34681;49.188;-0.374;2023-02-16T00:59:45;102257.09;;;11.94;68.26
48862;BME280;34681;49.188;-0.374;2023-02-16T01:02:11;102268.06;;;11.94;68.33
48862;BME280;34681;49.188;-0.374;2023-02-16T01:04:36;102256.00;;;12.07;68.05
48862;BME280;34681;49.188;-0.374;2023-02-16T01:07:09;102267.97;;;12.06;68.15
48862;BME280;34681;49.188;-0.374;2023-02-16T01:09:54;102257.88;;;12.07;67.97
48862;BME280;34681;49.188;-0.374;2023-02-16T01:12:38;102251.66;;;12.16;67.56
48862;BME280;34681;49.188;-0.374;2023-02-16T01:15:05;102244.06;;;12.08;67.84
48862;BME280;34681;49.188;-0.374;2023-02-16T01:17:34;102249.22;;;11.89;68.40
48862;BME280;34681;49.188;-0.374;2023-02-16T01:19:59;102244.84;;;11.87;68.72
48862;BME280;34681;49.188;-0.374;2023-02-16T01:22:24;102242.97;;;11.87;68.33
48862;BME280;34681;49.188;-0.374;2023-02-16T01:24:50;102242.22;;;11.85;68.80
48862;BME280;34681;49.188;-0.374;2023-02-16T01:27:16;102250.25;;;11.75;69.24
48862;BME280;34681;49.188;-0.374;2023-02-16T01:29:41;102254.34;;;11.94;68.73
48862;BME280;34681;49.188;-0.374;2023-02-16T01:32:10;102241.41;;;12.07;68.32
48862;BME280;34681;49.188;-0.374;2023-02-16T01:34:36;102240.69;;;12.16;67.82
48862;BME280;34681;49.188;-0.374;2023-02-16T01:37:02;102236.03;;;12.05;68.46
48862;BME280;34681;49.188;-0.374;2023-02-16T01:39:28;102241.81;;;12.14;67.97
48862;BME280;34681;49.188;-0.374;2023-02-16T01:46:51;102242.44;;;11.82;69.17
48862;BME280;34681;49.188;-0.374;2023-02-16T01:49:19;102246.53;;;12.00;68.57
48862;BME280;34681;49.188;-0.374;2023-02-16T01:52:14;102244.94;;;12.09;68.33
48862;BME280;34681;49.188;-0.374;2023-02-16T02:00:15;102236.44;;;11.77;69.32
48862;BME280;34681;49.188;-0.374;2023-02-16T02:02:49;102233.03;;;11.97;68.65
48862;BME280;34681;49.188;-0.374;2023-02-16T02:05:27;102229.88;;;11.91;68.93
48862;BME280;34681;49.188;-0.374;2023-02-16T02:08:18;102224.03;;;11.84;69.03
48862;BME280;34681;49.188;-0.374;2023-02-16T02:11:02;102223.44;;;11.92;69.00
48862;BME280;34681;49.188;-0.374;2023-02-16T02:13:44;102229.19;;;12.00;68.71
48862;BME280;34681;49.188;-0.374;2023-02-16T02:16:10;102232.81;;;12.12;68.30
48862;BME280;34681;49.188;-0.374;2023-02-16T02:18:36;102231.09;;;12.11;68.43
48862;BME280;34681;49.188;-0.374;2023-02-16T02:29:39;102229.09;;;12.13;68.31
48862;BME280;34681;49.188;-0.374;2023-02-16T02:32:20;102226.09;;;12.16;68.43
48862;BME280;34681;49.188;-0.374;2023-02-16T02:45:44;102209.66;;;12.27;67.85
48862;BME280;34681;49.188;-0.374;2023-02-16T02:48:11;102205.53;;;12.21;68.12
48862;BME280;34681;49.188;-0.374;2023-02-16T02:50:52;102210.53;;;12.38;67.77
48862;BME280;34681;49.188;-0.374;2023-02-16T02:54:04;102203.66;;;12.22;68.22
48862;BME280;34681;49.188;-0.374;2023-02-16T02:56:55;102199.03;;;12.22;68.36
48862;BME280;34681;49.188;-0.374;2023-02-16T02:59:46;102195.69;;;12.19;68.37
48862;BME280;34681;49.188;-0.374;2023-02-16T03:02:34;102197.63;;;12.05;69.08
48862;BME280;34681;49.188;-0.374;2023-02-16T03:05:01;102199.84;;;11.89;69.79
48862;BME280;34681;49.188;-0.374;2023-02-16T03:07:29;102193.88;;;11.95;69.57
48862;BME280;34681;49.188;-0.374;2023-02-16T03:10:13;102201.09;;;11.96;69.95
48862;BME280;34681;49.188;-0.374;2023-02-16T03:12:58;102190.13;;;11.96;70.30
48862;BME280;34681;49.188;-0.374;2023-02-16T03:15:25;102199.03;;;12.11;69.98
48862;BME280;34681;49.188;-0.374;2023-02-16T03:17:53;102195.81;;;12.17;69.90
48862;BME280;34681;49.188;-0.374;2023-02-16T03:20:40;102188.59;;;12.27;69.56
48862;BME280;34681;49.188;-0.374;2023-02-16T03:23:25;102182.84;;;12.19;69.85
48862;BME280;34681;49.188;-0.374;2023-02-16T03:26:10;102191.94;;;12.31;69.63
48862;BME280;34681;49.188;-0.374;2023-02-16T03:28:54;102189.94;;;12.22;69.97
48862;BME280;34681;49.188;-0.374;2023-02-16T03:31:40;102195.19;;;12.47;69.46
48862;BME280;34681;49.188;-0.374;2023-02-16T03:34:06;102185.09;;;12.36;69.69
48862;BME280;34681;49.188;-0.374;2023-02-16T03:36:34;102193.69;;;12.32;69.89
48862;BME280;34681;49.188;-0.374;2023-02-16T03:39:02;102198.69;;;12.38;69.89
48862;BME280;34681;49.188;-0.374;2023-02-16T03:41:33;102193.69;;;12.32;70.20
48862;BME280;34681;49.188;-0.374;2023-02-16T03:44:02;102193.69;;;12.21;70.57
48862;BME280;34681;49.188;-0.374;2023-02-16T03:46:27;102198.44;;;12.30;70.06
48862;BME280;34681;49.188;-0.374;2023-02-16T03:48:52;102199.06;;;12.33;70.00
48862;BME280;34681;49.188;-0.374;2023-02-16T03:51:18;102189.66;;;12.02;71.19
48862;BME280;34681;49.188;-0.374;2023-02-16T03:53:43;102196.78;;;12.16;70.97
48862;BME280;34681;49.188;-0.374;2023-02-16T03:56:08;102202.06;;;12.42;70.01
48862;BME280;34681;49.188;-0.374;2023-02-16T03:58:34;102205.81;;;12.63;69.05
48862;BME280;34681;49.188;-0.374;2023-02-16T04:00:59;102201.44;;;12.38;69.60
48862;BME280;34681;49.188;-0.374;2023-02-16T04:03:25;102204.19;;;12.49;69.37
48862;BME280;34681;49.188;-0.374;2023-02-16T04:05:50;102194.97;;;12.50;69.24
48862;BME280;34681;49.188;-0.374;2023-02-16T04:08:16;102201.59;;;12.59;68.95
48862;BME280;34681;49.188;-0.374;2023-02-16T04:10:41;102195.59;;;12.43;69.33
48862;BME280;34681;49.188;-0.374;2023-02-16T04:13:07;102194.94;;;12.28;69.61
48862;BME280;34681;49.188;-0.374;2023-02-16T04:15:32;102188.94;;;12.23;69.74
48862;BME280;34681;49.188;-0.374;2023-02-16T04:17:58;102191.47;;;12.26;69.79
48862;BME280;34681;49.188;-0.374;2023-02-16T04:20:29;102191.47;;;12.26;69.80
48862;BME280;34681;49.188;-0.374;2023-02-16T04:22:55;102188.31;;;12.30;69.59
48862;BME280;34681;49.188;-0.374;2023-02-16T04:25:21;102190.44;;;12.27;69.61
48862;BME280;34681;49.188;-0.374;2023-02-16T04:27:47;102191.47;;;12.26;69.63
48862;BME280;34681;49.188;-0.374;2023-02-16T04:30:16;102189.06;;;12.10;70.08
48862;BME280;34681;49.188;-0.374;2023-02-16T04:32:41;102189.53;;;12.04;70.39
48862;BME280;34681;49.188;-0.374;2023-02-16T04:35:07;102199.69;;;12.26;69.69
48862;BME280;34681;49.188;-0.374;2023-02-16T04:37:33;102198.16;;;12.22;69.77
48862;BME280;34681;49.188;-0.374;2023-02-16T04:39:59;102188.66;;;12.15;69.85
48862;BME280;34681;49.188;-0.374;2023-02-16T04:42:24;102198.81;;;12.25;69.77
48862;BME280;34681;49.188;-0.374;2023-02-16T04:44:49;102193.19;;;12.27;69.72
48862;BME280;34681;49.188;-0.374;2023-02-16T04:47:15;102191.47;;;12.26;69.74
48862;BME280;34681;49.188;-0.374;2023-02-16T04:49:40;102202.66;;;12.23;69.86
48862;BME280;34681;49.188;-0.374;2023-02-16T04:52:06;102193.53;;;12.11;70.31
48862;BME280;34681;49.188;-0.374;2023-02-16T04:54:32;102187.53;;;12.06;70.36
48862;BME280;34681;49.188;-0.374;2023-02-16T04:56:58;102195.28;;;12.23;69.92
48862;BME280;34681;49.188;-0.374;2023-02-16T04:59:24;102190.81;;;12.11;70.24
48862;BME280;34681;49.188;-0.374;2023-02-16T05:01:49;102190.94;;;12.21;69.84
48862;BME280;34681;49.188;-0.374;2023-02-16T05:04:15;102191.06;;;12.19;70.01
48862;BME280;34681;49.188;-0.374;2023-02-16T05:06:40;102182.22;;;12.27;69.53
48862;BME280;34681;49.188;-0.374;2023-02-16T05:09:06;102181.44;;;12.14;70.11
48862;BME280;34681;49.188;-0.374;2023-02-16T05:11:32;102190.94;;;12.09;70.12
48862;BME280;34681;49.188;-0.374;2023-02-16T05:14:22;102182.78;;;11.97;70.70
48862;BME280;34681;49.188;-0.374;2023-02-16T05:17:20;102200.97;;;11.87;71.22
48862;BME280;34681;49.188;-0.374;2023-02-16T05:19:48;102198.41;;;12.19;70.11
48862;BME280;34681;49.188;-0.374;2023-02-16T05:22:14;102205.19;;;12.26;69.85
48862;BME280;34681;49.188;-0.374;2023-02-16T05:24:40;102212.88;;;12.09;70.69
48862;BME280;34681;49.188;-0.374;2023-02-16T05:27:08;102189.28;;;12.07;70.39
48862;BME280;34681;49.188;-0.374;2023-02-16T05:29:34;102187.06;;;12.12;70.41
48862;BME280;34681;49.188;-0.374;2023-02-16T05:31:59;102192.16;;;12.05;70.69
48862;BME280;34681;49.188;-0.374;2023-02-16T05:34:25;102178.94;;;12.11;70.44
48862;BME280;34681;49.188;-0.374;2023-02-16T05:36:51;102181.44;;;12.14;70.18
48862;BME280;34681;49.188;-0.374;2023-02-16T05:39:16;102189.41;;;12.05;70.73
48862;BME280;34681;49.188;-0.374;2023-02-16T05:41:42;102186.25;;;11.99;70.77
48862;BME280;34681;49.188;-0.374;2023-02-16T05:44:07;102178.44;;;12.05;70.88
48862;BME280;34681;49.188;-0.374;2023-02-16T05:46:35;102172.72;;;12.08;70.75
48862;BME280;34681;49.188;-0.374;2023-02-16T05:49:02;102156.00;;;12.00;71.00
48862;BME280;34681;49.188;-0.374;2023-02-16T05:51:28;102155.59;;;11.94;71.34
48862;BME280;34681;49.188;-0.374;2023-02-16T05:53:53;102160.59;;;11.65;72.61
48862;BME280;34681;49.188;-0.374;2023-02-16T05:56:20;102161.50;;;11.76;72.31
48862;BME280;34681;49.188;-0.374;2023-02-16T05:58:45;102172.94;;;11.59;73.25
48862;BME280;34681;49.188;-0.374;2023-02-16T06:01:11;102167.31;;;11.61;73.26
48862;BME280;34681;49.188;-0.374;2023-02-16T06:03:37;102178.28;;;11.85;72.61
48862;BME280;34681;49.188;-0.374;2023-02-16T06:06:03;102189.25;;;11.85;72.68
48862;BME280;34681;49.188;-0.374;2023-02-16T06:08:29;102183.63;;;11.86;72.87
48862;BME280;34681;49.188;-0.374;2023-02-16T06:10:55;102175.28;;;11.99;72.43
48862;BME280;34681;49.188;-0.374;2023-02-16T06:13:22;102192.72;;;11.87;73.05
48862;BME280;34681;49.188;-0.374;2023-02-16T06:15:51;102192.47;;;11.90;73.04
48862;BME280;34681;49.188;-0.374;2023-02-16T06:18:17;102203.72;;;11.98;72.70
48862;BME280;34681;49.188;-0.374;2023-02-16T06:20:42;102194.69;;;12.20;71.81
48862;BME280;34681;49.188;-0.374;2023-02-16T06:23:10;102202.03;;;12.19;72.00
48862;BME280;34681;49.188;-0.374;2023-02-16T06:25:36;102193.06;;;12.17;72.15
48862;BME280;34681;49.188;-0.374;2023-02-16T06:28:02;102188.94;;;12.12;72.19
48862;BME280;34681;49.188;-0.374;2023-02-16T06:30:27;102199.44;;;12.29;71.71
48862;BME280;34681;49.188;-0.374;2023-02-16T06:32:53;102201.19;;;12.30;71.49
48862;BME280;34681;49.188;-0.374;2023-02-16T06:35:18;102202.19;;;12.29;71.65
48862;BME280;34681;49.188;-0.374;2023-02-16T06:37:44;102215.63;;;12.32;71.52
48862;BME280;34681;49.188;-0.374;2023-02-16T06:40:10;102222.25;;;12.41;71.13
48862;BME280;34681;49.188;-0.374;2023-02-16T06:42:38;102212.75;;;12.22;71.70
48862;BME280;34681;49.188;-0.374;2023-02-16T06:45:04;102215.88;;;12.18;72.06
48862;BME280;34681;49.188;-0.374;2023-02-16T06:47:29;102214.63;;;12.22;71.86
48862;BME280;34681;49.188;-0.374;2023-02-16T06:49:55;102224.59;;;12.23;71.78
48862;BME280;34681;49.188;-0.374;2023-02-16T06:52:20;102224.00;;;12.19;71.94
48862;BME280;34681;49.188;-0.374;2023-02-16T06:54:45;102226.78;;;11.95;72.90
48862;BME280;34681;49.188;-0.374;2023-02-16T06:57:11;102223.56;;;12.01;72.93
48862;BME280;34681;49.188;-0.374;2023-02-16T06:59:36;102226.31;;;12.01;72.84
48862;BME280;34681;49.188;-0.374;2023-02-16T07:02:02;102230.53;;;11.70;73.93
48862;BME280;34681;49.188;-0.374;2023-02-16T07:04:27;102242.13;;;11.74;74.14
48862;BME280;34681;49.188;-0.374;2023-02-16T07:06:53;102240.91;;;12.02;73.18
48862;BME280;34681;49.188;-0.374;2023-02-16T07:09:18;102244.66;;;12.01;73.28
48862;BME280;34681;49.188;-0.374;2023-02-16T07:11:43;102238.38;;;11.99;73.36
48862;BME280;34681;49.188;-0.374;2023-02-16T07:14:09;102237.66;;;12.08;73.08
48862;BME280;34681;49.188;-0.374;2023-02-16T07:16:34;102233.84;;;12.22;72.76
48862;BME280;34681;49.188;-0.374;2023-02-16T07:19:00;102236.72;;;12.20;72.70
48862;BME280;34681;49.188;-0.374;2023-02-16T07:21:25;102230.09;;;12.23;72.58
48862;BME280;34681;49.188;-0.374;2023-02-16T07:23:50;102230.47;;;12.18;72.46
48862;BME280;34681;49.188;-0.374;2023-02-16T07:26:16;102227.13;;;12.26;72.35
48862;BME280;34681;49.188;-0.374;2023-02-16T07:28:41;102219.91;;;12.25;72.02
48862;BME280;34681;49.188;-0.374;2023-02-16T07:31:13;102221.66;;;12.26;72.09
48862;BME280;34681;49.188;-0.374;2023-02-16T07:33:39;102224.72;;;12.10;72.64
48862;BME280;34681;49.188;-0.374;2023-02-16T07:36:05;102215.28;;;12.25;72.07
48862;BME280;34681;49.188;-0.374;2023-02-16T07:38:31;102217.75;;;12.17;72.53
48862;BME280;34681;49.188;-0.374;2023-02-16T07:40:57;102210.28;;;12.19;71.99
48862;BME280;34681;49.188;-0.374;2023-02-16T07:43:24;102217.91;;;12.38;72.19
48862;BME280;34681;49.188;-0.374;2023-02-16T07:45:50;102215.28;;;12.48;72.13
48862;BME280;34681;49.188;-0.374;2023-02-16T07:48:16;102216.06;;;12.50;72.31
48862;BME280;34681;49.188;-0.374;2023-02-16T07:50:42;102230.66;;;12.61;71.97
48862;BME280;34681;49.188;-0.374;2023-02-16T07:53:07;102226.53;;;12.45;72.38
48862;BME280;34681;49.188;-0.374;2023-02-16T07:55:40;102228.00;;;12.49;72.48
48862;BME280;34681;49.188;-0.374;2023-02-16T07:58:06;102228.00;;;12.49;72.36
48862;BME280;34681;49.188;-0.374;2023-02-16T08:00:32;102237.13;;;12.49;72.30
48862;BME280;34681;49.188;-0.374;2023-02-16T08:02:57;102235.41;;;12.59;72.12
48862;BME280;34681;49.188;-0.374;2023-02-16T08:05:23;102238.03;;;12.72;71.60
48862;BME280;34681;49.188;-0.374;2023-02-16T08:07:48;102242.00;;;12.90;70.84
48862;BME280;34681;49.188;-0.374;2023-02-16T08:10:14;102248.00;;;12.96;70.50
48862;BME280;34681;49.188;-0.374;2023-02-16T08:12:40;102245.00;;;13.10;70.35
48862;BME280;34681;49.188;-0.374;2023-02-16T08:15:06;102248.13;;;13.28;69.65
48862;BME280;34681;49.188;-0.374;2023-02-16T08:17:33;102249.38;;;13.12;70.35
48862;BME280;34681;49.188;-0.374;2023-02-16T08:19:58;102255.75;;;13.02;70.57
48862;BME280;34681;49.188;-0.374;2023-02-16T08:22:24;102252.38;;;13.20;70.06
48862;BME280;34681;49.188;-0.374;2023-02-16T08:24:49;102257.75;;;13.33;69.70
48862;BME280;34681;49.188;-0.374;2023-02-16T08:27:15;102267.38;;;13.28;69.57
48862;BME280;34681;49.188;-0.374;2023-02-16T08:29:40;102258.34;;;13.37;69.59
48862;BME280;34681;49.188;-0.374;2023-02-16T08:32:06;102250.47;;;13.43;69.31
48862;BME280;34681;49.188;-0.374;2023-02-16T08:34:35;102256.41;;;13.60;68.83
48862;BME280;34681;49.188;-0.374;2023-02-16T08:37:00;102261.28;;;13.67;68.33
48862;BME280;34681;49.188;-0.374;2023-02-16T08:39:29;102250.28;;;13.67;68.53
48862;BME280;34681;49.188;-0.374;2023-02-16T08:41:55;102251.59;;;13.84;67.91
48862;BME280;34681;49.188;-0.374;2023-02-16T08:44:23;102251.38;;;13.76;68.29
48862;BME280;34681;49.188;-0.374;2023-02-16T08:46:51;102249.03;;;13.92;67.90
48862;BME280;34681;49.188;-0.374;2023-02-16T08:49:19;102255.31;;;14.15;67.19
48862;BME280;34681;49.188;-0.374;2023-02-16T08:51:49;102261.41;;;14.19;66.86
48862;BME280;34681;49.188;-0.374;2023-02-16T08:54:18;102267.44;;;14.13;66.83
48862;BME280;34681;49.188;-0.374;2023-02-16T08:56:44;102273.13;;;14.32;66.67
48862;BME280;34681;49.188;-0.374;2023-02-16T08:59:13;102264.09;;;14.72;65.61
48862;BME280;34681;49.188;-0.374;2023-02-16T09:01:39;102271.34;;;14.73;65.28
48862;BME280;34681;49.188;-0.374;2023-02-16T09:04:05;102265.94;;;14.92;64.95
48862;BME280;34681;49.188;-0.374;2023-02-16T09:06:31;102277.66;;;15.15;64.43
48862;BME280;34681;49.188;-0.374;2023-02-16T09:08:57;102273.13;;;15.14;64.28
48862;BME280;34681;49.188;-0.374;2023-02-16T09:11:23;102271.63;;;15.00;64.30
48862;BME280;34681;49.188;-0.374;2023-02-16T09:13:49;102271.72;;;15.29;63.67
48862;BME280;34681;49.188;-0.374;2023-02-16T09:16:20;102275.75;;;15.15;63.89
48862;BME280;34681;49.188;-0.374;2023-02-16T09:18:46;102277.25;;;15.39;63.26
48862;BME280;34681;49.188;-0.374;2023-02-16T09:21:19;102277.66;;;15.15;62.74
48862;BME280;34681;49.188;-0.374;2023-02-16T09:23:47;102272.53;;;15.10;62.03
48862;BME280;34681;49.188;-0.374;2023-02-16T09:26:18;102278.75;;;15.03;61.23
48862;BME280;34681;49.188;-0.374;2023-02-16T09:28:44;102280.47;;;15.04;60.88
48862;BME280;34681;49.188;-0.374;2023-02-16T09:31:20;102287.38;;;14.88;61.41
48862;BME280;34681;49.188;-0.374;2023-02-16T09:33:50;102293.28;;;14.74;61.55
48862;BME280;34681;49.188;-0.374;2023-02-16T09:36:16;102283.81;;;14.67;61.76
48862;BME280;34681;49.188;-0.374;2023-02-16T09:38:42;102281.41;;;14.83;61.83
48862;BME280;34681;49.188;-0.374;2023-02-16T09:41:20;102286.38;;;14.89;61.78
48862;BME280;34681;49.188;-0.374;2023-02-16T09:44:10;102284.56;;;14.79;61.99
48862;BME280;34681;49.188;-0.374;2023-02-16T09:46:38;102281.09;;;14.77;62.27
48862;BME280;34681;49.188;-0.374;2023-02-16T09:49:05;102267.53;;;14.95;62.02
48862;BME280;34681;49.188;-0.374;2023-02-16T09:51:37;102275.25;;;15.01;61.65
48862;BME280;34681;49.188;-0.374;2023-02-16T09:56:55;102277.53;;;15.26;61.66
48862;BME280;34681;49.188;-0.374;2023-02-16T09:59:40;102274.22;;;15.32;61.15
48862;BME280;34681;49.188;-0.374;2023-02-16T10:02:35;102277.56;;;15.36;60.61
48862;BME280;34681;49.188;-0.374;2023-02-16T10:07:56;102279.53;;;15.14;61.50
48862;BME280;34681;49.188;-0.374;2023-02-16T10:11:20;102277.75;;;15.13;61.54
48862;BME280;34681;49.188;-0.374;2023-02-16T10:14:00;102279.22;;;14.77;62.47
48862;BME280;34681;49.188;-0.374;2023-02-16T10:16:29;102281.41;;;14.83;62.54
48862;BME280;34681;49.188;-0.374;2023-02-16T10:18:56;102281.13;;;14.86;62.65
48862;BME280;34681;49.188;-0.374;2023-02-16T10:21:26;102283.16;;;14.84;62.74
48862;BME280;34681;49.188;-0.374;2023-02-16T10:23:57;102294.47;;;14.81;63.30
48862;BME280;34681;49.188;-0.374;2023-02-16T10:26:38;102284.13;;;15.04;62.73
48862;BME280;34681;49.188;-0.374;2023-02-16T10:29:09;102303.00;;;15.09;62.82
48862;BME280;34681;49.188;-0.374;2023-02-16T10:32:09;102304.91;;;15.08;62.96
48862;BME280;34681;49.188;-0.374;2023-02-16T10:34:58;102304.47;;;15.13;63.09
48862;BME280;34681;49.188;-0.374;2023-02-16T10:37:32;102311.59;;;15.15;63.13
48862;BME280;34681;49.188;-0.374;2023-02-16T10:40:29;102309.13;;;15.22;63.51
48862;BME280;34681;49.188;-0.374;2023-02-16T10:43:12;102298.84;;;15.14;64.02
48862;BME280;34681;49.188;-0.374;2023-02-16T10:45:53;102299.50;;;14.76;65.40
48862;BME280;34681;49.188;-0.374;2023-02-16T10:48:21;102290.63;;;14.73;65.80
48862;BME280;34681;49.188;-0.374;2023-02-16T10:50:57;102282.28;;;15.14;65.13
48862;BME280;34681;49.188;-0.374;2023-02-16T10:53:48;102295.78;;;15.17;64.83
48862;BME280;34681;49.188;-0.374;2023-02-16T10:58:59;102293.09;;;15.37;64.68
48862;BME280;34681;49.188;-0.374;2023-02-16T11:01:37;102290.28;;;15.17;65.27
48862;BME280;34681;49.188;-0.374;2023-02-16T11:04:04;102290.06;;;15.00;65.86
48862;BME280;34681;49.188;-0.374;2023-02-16T11:06:30;102281.72;;;15.21;65.34
48862;BME280;34681;49.188;-0.374;2023-02-16T11:08:58;102284.09;;;15.35;65.05
48862;BME280;34681;49.188;-0.374;2023-02-16T11:11:36;102299.75;;;15.34;64.90
48862;BME280;34681;49.188;-0.374;2023-02-16T11:14:06;102286.31;;;15.10;65.79
48862;BME280;34681;49.188;-0.374;2023-02-16T11:16:32;102277.75;;;15.13;65.67
48862;BME280;34681;49.188;-0.374;2023-02-16T11:19:07;102279.88;;;15.31;65.27
48862;BME280;34681;49.188;-0.374;2023-02-16T11:21:48;102268.22;;;15.67;64.79
48862;BME280;34681;49.188;-0.374;2023-02-16T11:24:28;102273.38;;;15.51;65.05
48862;BME280;34681;49.188;-0.374;2023-02-16T11:29:26;102267.69;;;15.33;65.59
48862;BME280;34681;49.188;-0.374;2023-02-16T11:31:52;102265.69;;;15.55;64.93
48862;BME280;34681;49.188;-0.374;2023-02-16T11:34:28;102265.25;;;15.50;65.30
48862;BME280;34681;49.188;-0.374;2023-02-16T11:39:34;102260.16;;;15.55;65.05
48862;BME280;34681;49.188;-0.374;2023-02-16T11:42:04;102253.94;;;15.53;65.07
48862;BME280;34681;49.188;-0.374;2023-02-16T11:47:08;102246.66;;;15.52;65.00
48862;BME280;34681;49.188;-0.374;2023-02-16T11:49:44;102246.53;;;15.53;65.02
48862;BME280;34681;49.188;-0.374;2023-02-16T11:54:52;102240.31;;;15.61;64.97
48862;BME280;34681;49.188;-0.374;2023-02-16T11:57:29;102240.78;;;15.76;64.34
48862;BME280;34681;49.188;-0.374;2023-02-16T11:59:56;102230.81;;;15.44;65.28
48862;BME280;34681;49.188;-0.374;2023-02-16T12:05:39;102230.59;;;15.76;64.65
48862;BME280;34681;49.188;-0.374;2023-02-16T12:10:47;102234.13;;;15.28;66.05
48862;BME280;34681;49.188;-0.374;2023-02-16T12:13:27;102224.41;;;15.24;65.94
48862;BME280;34681;49.188;-0.374;2023-02-16T12:21:46;102241.03;;;15.63;65.31
48862;BME280;34681;49.188;-0.374;2023-02-16T12:24:43;102234.47;;;15.54;65.30
48862;BME280;34681;49.188;-0.374;2023-02-16T12:27:19;102238.69;;;15.49;65.58
48862;BME280;34681;49.188;-0.374;2023-02-16T12:37:45;102226.09;;;15.65;64.81
48862;BME280;34681;49.188;-0.374;2023-02-16T12:45:22;102232.56;;;15.55;65.33
48862;BME280;34681;49.188;-0.374;2023-02-16T12:48:06;102226.47;;;15.41;65.67
48862;BME280;34681;49.188;-0.374;2023-02-16T12:50:36;102223.25;;;15.36;65.84
48862;BME280;34681;49.188;-0.374;2023-02-16T12:53:05;102237.78;;;15.38;66.07
48862;BME280;34681;49.188;-0.374;2023-02-16T13:00:43;102238.94;;;15.26;66.18
48862;BME280;34681;49.188;-0.374;2023-02-16T13:03:22;102231.66;;;15.25;66.49
48862;BME280;34681;49.188;-0.374;2023-02-16T13:05:59;102236.50;;;15.42;66.12
48862;BME280;34681;49.188;-0.374;2023-02-16T13:09:02;102229.66;;;15.46;65.97
48862;BME280;34681;49.188;-0.374;2023-02-16T13:11:44;102222.78;;;15.22;66.54
48862;BME280;34681;49.188;-0.374;2023-02-16T13:14:17;102227.56;;;15.10;66.97
48862;BME280;34681;49.188;-0.374;2023-02-16T13:16:54;102229.16;;;15.12;67.17
48862;BME280;34681;49.188;-0.374;2023-02-16T13:19:22;102226.41;;;15.22;66.54
48862;BME280;34681;49.188;-0.374;2023-02-16T13:27:14;102227.56;;;15.10;67.24
48862;BME280;34681;49.188;-0.374;2023-02-16T13:38:08;102209.28;;;15.09;67.37
48862;BME280;34681;49.188;-0.374;2023-02-16T13:46:10;102202.09;;;14.87;68.48
48862;BME280;34681;49.188;-0.374;2023-02-16T13:48:44;102203.59;;;15.01;68.18
48862;BME280;34681;49.188;-0.374;2023-02-16T13:51:21;102194.16;;;15.03;68.22
48862;BME280;34681;49.188;-0.374;2023-02-16T13:54:02;102201.88;;;15.09;68.38
48862;BME280;34681;49.188;-0.374;2023-02-16T13:58:54;102196.06;;;15.12;68.47
48862;BME280;34681;49.188;-0.374;2023-02-16T14:04:00;102201.03;;;15.18;68.33
48862;BME280;34681;49.188;-0.374;2023-02-16T14:06:31;102202.16;;;15.06;68.55
48862;BME280;34681;49.188;-0.374;2023-02-16T14:14:33;102187.56;;;15.35;68.33
48862;BME280;34681;49.188;-0.374;2023-02-16T14:22:48;102173.66;;;15.56;68.01
48862;BME280;34681;49.188;-0.374;2023-02-16T14:30:32;102165.38;;;15.56;67.43
48862;BME280;34681;49.188;-0.374;2023-02-16T14:35:35;102169.00;;;15.56;67.91
48862;BME280;34681;49.188;-0.374;2023-02-16T14:38:04;102170.91;;;15.75;67.25
48862;BME280;34681;49.188;-0.374;2023-02-16T14:43:09;102174.63;;;16.13;66.46
48862;BME280;34681;49.188;-0.374;2023-02-16T14:57:05;102185.69;;;15.55;67.89
48862;BME280;34681;49.188;-0.374;2023-02-16T14:59:48;102191.25;;;15.64;67.44
48862;BME280;34681;49.188;-0.374;2023-02-16T15:02:31;102198.38;;;15.77;67.25
48862;BME280;34681;49.188;-0.374;2023-02-16T15:05:22;102178.59;;;15.62;67.68
48862;BME280;34681;49.188;-0.374;2023-02-16T15:07:51;102190.09;;;15.77;67.39
48862;BME280;34681;49.188;-0.374;2023-02-16T15:10:25;102192.53;;;15.70;67.73
48862;BME280;34681;49.188;-0.374;2023-02-16T15:12:52;102176.38;;;15.46;68.32
48862;BME280;34681;49.188;-0.374;2023-02-16T15:15:21;102183.22;;;15.32;68.96
48862;BME280;34681;49.188;-0.374;2023-02-16T15:17:49;102179.28;;;15.35;68.93
48862;BME280;34681;49.188;-0.374;2023-02-16T15:20:34;102181.03;;;15.55;68.45
48862;BME280;34681;49.188;-0.374;2023-02-16T15:23:06;102169.56;;;15.40;68.86
48862;BME280;34681;49.188;-0.374;2023-02-16T15:25:40;102172.03;;;15.34;69.29
48862;BME280;34681;49.188;-0.374;2023-02-16T15:30:58;102177.53;;;15.34;69.04
48862;BME280;34681;49.188;-0.374;2023-02-16T15:35:54;102178.13;;;15.28;69.52
48862;BME280;34681;49.188;-0.374;2023-02-16T15:38:36;102180.47;;;15.32;69.43